createdAt,value
2018-12-08T00:01:11.615Z,3.33
2018-12-08T00:03:40.082Z,3.50
2018-12-08T00:06:08.360Z,3.13
2018-12-08T00:08:36.647Z,3.37
2018-12-08T00:11:05.069Z,3.70
2018-12-08T00:13:33.435Z,3.70
2018-12-08T00:16:02.032Z,2.97
2018-12-08T00:18:30.307Z,3.90
2018-12-08T00:21:01.927Z,3.70
2018-12-08T00:23:30.434Z,4.90
2018-12-08T00:25:58.763Z,3.70
2018-12-08T00:28:28.299Z,3.70
2018-12-08T00:31:07.811Z,3.57
2018-12-08T00:33:36.079Z,4.43
2018-12-08T00:36:04.351Z,4.27
2018-12-08T00:38:32.615Z,4.60
2018-12-08T00:41:01.263Z,5.03
2018-12-08T00:43:29.544Z,4.60
2018-12-08T00:45:57.911Z,4.90
2018-12-08T00:48:26.271Z,4.90
2018-12-08T00:50:54.615Z,4.60
2018-12-08T00:53:23.367Z,4.70
2018-12-08T00:55:51.896Z,4.17
2018-12-08T00:59:23.192Z,4.67
2018-12-08T01:01:51.550Z,4.63
2018-12-08T01:04:19.466Z,4.37
2018-12-08T01:06:48.123Z,4.70
2018-12-08T01:09:16.367Z,4.60
2018-12-08T01:11:44.595Z,4.00
2018-12-08T01:14:12.831Z,4.67
2018-12-08T01:16:41.295Z,3.60
2018-12-08T01:19:09.551Z,3.47
2018-12-08T01:21:37.779Z,3.40
2018-12-08T01:24:06.012Z,3.30
2018-12-08T01:26:34.260Z,3.27
2018-12-08T01:29:02.512Z,3.10
2018-12-08T01:31:30.768Z,3.47
2018-12-08T01:33:59.003Z,4.17
2018-12-08T01:36:27.404Z,3.53
2018-12-08T01:38:55.656Z,4.50
2018-12-08T01:41:23.883Z,4.57
2018-12-08T01:43:52.162Z,4.47
2018-12-08T01:46:20.471Z,4.80
2018-12-08T01:48:48.843Z,4.67
2018-12-08T01:51:17.091Z,4.67
2018-12-08T01:53:45.323Z,4.97
2018-12-08T01:56:13.652Z,5.50
2018-12-08T01:58:42.004Z,4.73
2018-12-08T02:01:10.415Z,4.93
2018-12-08T02:03:38.639Z,4.63
2018-12-08T02:06:06.967Z,4.50
2018-12-08T02:08:35.244Z,4.97
2018-12-08T02:11:03.600Z,4.27
2018-12-08T02:13:31.869Z,3.57
2018-12-08T02:16:00.175Z,4.10
2018-12-08T02:18:28.483Z,3.67
2018-12-08T02:20:56.986Z,3.27
2018-12-08T02:23:25.296Z,3.03
2018-12-08T02:25:53.775Z,3.50
2018-12-08T02:28:22.039Z,3.50
2018-12-08T02:30:50.695Z,3.30
2018-12-08T02:33:19.003Z,2.90
2018-12-08T02:35:47.234Z,3.10
2018-12-08T02:38:15.511Z,2.80
2018-12-08T02:40:43.818Z,2.70
2018-12-08T02:43:12.184Z,3.07
2018-12-08T02:45:40.418Z,3.10
2018-12-08T02:48:08.650Z,3.03
2018-12-08T02:50:37.047Z,2.93
2018-12-08T02:53:05.282Z,3.10
2018-12-08T02:55:33.682Z,3.37
2018-12-08T02:58:02.046Z,3.20
2018-12-08T03:00:30.394Z,3.60
2018-12-08T03:02:58.862Z,2.93
2018-12-08T03:05:27.097Z,2.93
2018-12-08T03:07:55.373Z,2.53
2018-12-08T03:10:23.615Z,3.27
2018-12-08T03:12:51.854Z,3.00
2018-12-08T03:15:20.313Z,2.87
2018-12-08T03:17:48.555Z,2.60
2018-12-08T03:20:16.918Z,2.80
2018-12-08T03:22:45.237Z,3.17
2018-12-08T03:25:13.601Z,2.90
2018-12-08T03:27:41.825Z,3.73
2018-12-08T03:30:10.235Z,2.93
2018-12-08T03:32:38.583Z,3.03
2018-12-08T03:35:07.149Z,3.07
2018-12-08T03:37:35.422Z,2.93
2018-12-08T03:40:03.909Z,3.10
2018-12-08T03:42:32.197Z,2.97
2018-12-08T03:45:01.298Z,3.90
2018-12-08T03:47:29.557Z,2.77
2018-12-08T03:49:57.831Z,3.77
2018-12-08T03:52:26.208Z,3.77
2018-12-08T03:54:54.494Z,3.40
2018-12-08T03:57:22.758Z,3.23
2018-12-08T03:59:51.006Z,3.77
2018-12-08T04:02:19.271Z,3.60
2018-12-08T04:04:47.606Z,4.53
2018-12-08T04:07:15.890Z,4.23
2018-12-08T04:09:44.147Z,4.40
2018-12-08T04:12:12.382Z,4.37
2018-12-08T04:14:40.709Z,4.00
2018-12-08T04:17:08.971Z,3.60
2018-12-08T04:19:37.299Z,3.77
2018-12-08T04:22:05.522Z,4.17
2018-12-08T04:24:33.809Z,4.07
2018-12-08T04:27:02.076Z,3.97
2018-12-08T04:29:30.302Z,4.27
2018-12-08T04:31:58.552Z,3.87
2018-12-08T04:34:26.774Z,3.93
2018-12-08T04:36:55.131Z,3.67
2018-12-08T04:39:23.370Z,4.40
2018-12-08T04:41:51.601Z,3.83
2018-12-08T04:44:19.873Z,3.37
2018-12-08T04:46:48.101Z,3.70
2018-12-08T04:49:16.465Z,3.20
2018-12-08T04:51:44.717Z,4.33
2018-12-08T04:54:12.970Z,3.63
2018-12-08T04:56:41.254Z,3.77
2018-12-08T04:59:09.577Z,3.17
2018-12-08T05:01:37.858Z,3.40
2018-12-08T05:04:06.086Z,3.63
2018-12-08T05:06:34.350Z,3.30
2018-12-08T05:09:02.690Z,3.90
2018-12-08T05:11:30.982Z,3.70
2018-12-08T05:13:59.218Z,3.80
2018-12-08T05:16:27.462Z,4.07
2018-12-08T05:18:55.720Z,3.47
2018-12-08T05:21:23.982Z,3.80
2018-12-08T05:23:52.231Z,4.17
2018-12-08T05:26:20.518Z,3.97
2018-12-08T05:28:48.768Z,3.67
2018-12-08T05:31:17.031Z,4.23
2018-12-08T05:33:45.309Z,3.80
2018-12-08T05:36:13.558Z,3.57
2018-12-08T05:38:41.824Z,4.03
2018-12-08T05:41:10.051Z,3.50
2018-12-08T05:43:38.303Z,3.77
2018-12-08T05:46:07.015Z,3.90
2018-12-08T05:48:35.267Z,3.30
2018-12-08T05:51:03.551Z,3.87
2018-12-08T05:53:31.827Z,3.40
2018-12-08T05:56:00.076Z,3.70
2018-12-08T05:58:28.353Z,3.87
2018-12-08T06:00:56.664Z,4.17
2018-12-08T06:03:24.950Z,3.90
2018-12-08T06:05:53.215Z,4.00
2018-12-08T06:08:21.508Z,4.43
2018-12-08T06:10:49.772Z,4.27
2018-12-08T06:13:18.088Z,4.77
2018-12-08T06:15:46.344Z,4.23
2018-12-08T06:18:14.610Z,3.97
2018-12-08T06:20:42.884Z,3.93
2018-12-08T06:23:11.149Z,3.50
2018-12-08T06:25:39.708Z,3.70
2018-12-08T06:28:27.762Z,3.47
2018-12-08T06:30:57.311Z,3.87
2018-12-08T06:33:25.579Z,4.30
2018-12-08T06:35:53.836Z,3.90
2018-12-08T06:38:22.068Z,3.53
2018-12-08T06:40:50.312Z,3.63
2018-12-08T06:43:18.558Z,3.73
2018-12-08T06:45:46.800Z,4.27
2018-12-08T06:48:15.049Z,4.10
2018-12-08T06:50:43.396Z,3.87
2018-12-08T06:53:11.685Z,4.00
2018-12-08T06:55:39.965Z,4.30
2018-12-08T06:58:08.205Z,3.73
2018-12-08T07:00:36.565Z,3.30
2018-12-08T07:03:04.857Z,3.57
2018-12-08T07:05:33.129Z,4.20
2018-12-08T07:08:01.373Z,3.10
2018-12-08T07:10:29.733Z,4.27
2018-12-08T07:12:58.015Z,3.40
2018-12-08T07:15:26.277Z,3.80
2018-12-08T07:17:54.536Z,3.47
2018-12-08T07:20:22.821Z,3.30
2018-12-08T07:22:51.093Z,3.73
2018-12-08T07:25:19.366Z,3.50
2018-12-08T07:27:47.623Z,3.57
2018-12-08T07:30:15.889Z,3.67
2018-12-08T07:32:50.917Z,3.77
2018-12-08T07:35:19.178Z,3.20
2018-12-08T07:37:47.439Z,4.07
2018-12-08T07:40:15.721Z,3.60
2018-12-08T07:42:44.020Z,3.80
2018-12-08T07:45:12.319Z,4.40
2018-12-08T07:47:40.581Z,3.43
2018-12-08T07:50:09.561Z,3.90
2018-12-08T07:52:37.821Z,3.70
2018-12-08T07:55:07.833Z,3.53
2018-12-08T07:57:36.109Z,3.47
2018-12-08T08:00:08.505Z,3.00
2018-12-08T08:02:36.761Z,3.23
2018-12-08T08:05:05.665Z,3.70
2018-12-08T08:07:33.933Z,3.40
2018-12-08T08:10:02.213Z,3.33
2018-12-08T08:12:30.493Z,3.43
2018-12-08T08:14:58.745Z,3.00
2018-12-08T08:17:27.025Z,2.83
2018-12-08T08:19:55.265Z,3.20
2018-12-08T08:22:23.521Z,3.33
2018-12-08T08:24:51.797Z,2.90
2018-12-08T08:27:20.045Z,3.17
2018-12-08T08:29:48.394Z,3.80
2018-12-08T08:32:16.741Z,3.10
2018-12-08T08:34:44.993Z,3.37
2018-12-08T08:37:13.250Z,3.23
2018-12-08T08:39:41.526Z,3.40
2018-12-08T08:42:09.777Z,3.27
2018-12-08T08:44:38.027Z,3.70
2018-12-08T08:47:06.385Z,3.73
2018-12-08T08:49:34.618Z,4.07
2018-12-08T08:52:02.868Z,4.30
2018-12-08T08:54:31.094Z,3.90
2018-12-08T08:56:59.338Z,4.10
2018-12-08T08:59:27.587Z,4.07
2018-12-08T09:01:55.850Z,2.87
2018-12-08T09:04:24.086Z,3.80
2018-12-08T09:06:52.360Z,3.70
2018-12-08T09:09:20.670Z,3.20
2018-12-08T09:11:55.738Z,3.27
2018-12-08T09:14:23.971Z,4.03
2018-12-08T09:16:52.254Z,4.00
2018-12-08T09:19:20.562Z,3.57
2018-12-08T09:21:48.862Z,3.97
2018-12-08T09:24:17.174Z,3.90
2018-12-08T09:26:45.459Z,3.80
2018-12-08T09:29:13.863Z,4.30
2018-12-08T09:31:42.349Z,4.17
2018-12-08T09:34:10.623Z,4.30
2018-12-08T09:36:39.047Z,3.37
2018-12-08T09:39:08.356Z,3.90
2018-12-08T09:41:36.811Z,3.50
2018-12-08T09:44:06.031Z,4.10
2018-12-08T09:46:34.293Z,4.17
2018-12-08T09:49:02.571Z,4.63
2018-12-08T09:51:30.911Z,4.17
2018-12-08T09:53:59.259Z,3.57
2018-12-08T09:56:27.603Z,3.73
2018-12-08T09:58:55.915Z,3.67
2018-12-08T10:01:24.151Z,3.80
2018-12-08T10:03:52.407Z,3.07
2018-12-08T10:06:20.657Z,3.80
2018-12-08T10:08:48.888Z,4.00
2018-12-08T10:11:17.127Z,3.60
2018-12-08T10:13:45.412Z,3.83
2018-12-08T10:16:13.717Z,4.17
2018-12-08T10:18:42.068Z,3.87
2018-12-08T10:21:10.336Z,3.87
2018-12-08T10:23:38.565Z,4.47
2018-12-08T10:26:06.808Z,4.40
2018-12-08T10:28:35.157Z,3.83
2018-12-08T10:31:03.420Z,3.70
2018-12-08T10:33:31.776Z,4.00
2018-12-08T10:36:00.065Z,4.23
2018-12-08T10:38:28.372Z,4.20
2018-12-08T10:40:56.720Z,3.80
2018-12-08T10:43:25.064Z,4.27
2018-12-08T10:45:53.305Z,3.83
2018-12-08T10:48:21.677Z,4.27
2018-12-08T10:50:50.028Z,3.70
2018-12-08T10:53:18.364Z,3.80
2018-12-08T10:55:46.653Z,4.00
2018-12-08T10:58:14.948Z,3.90
2018-12-08T11:07:43.013Z,4.20
2018-12-08T11:10:11.386Z,3.77
2018-12-08T11:12:39.850Z,3.90
2018-12-08T11:15:08.360Z,4.13
2018-12-08T11:17:36.680Z,3.60
2018-12-08T11:20:05.506Z,4.77
2018-12-08T11:22:33.924Z,5.53
2018-12-08T11:25:02.254Z,4.33
2018-12-08T11:27:30.640Z,4.43
2018-12-08T11:29:59.044Z,6.13
2018-12-08T11:32:27.384Z,6.20
2018-12-08T11:34:55.920Z,5.70
2018-12-08T11:37:24.256Z,5.07
2018-12-08T11:39:52.576Z,3.83
2018-12-08T11:42:20.884Z,4.00
2018-12-08T11:44:49.247Z,4.63
2018-12-08T11:47:17.617Z,3.97
2018-12-08T11:49:45.925Z,4.30
2018-12-08T11:52:14.497Z,5.43
2018-12-08T11:54:55.409Z,4.63
2018-12-08T11:57:36.521Z,3.30
2018-12-08T12:00:06.125Z,3.83
2018-12-08T12:02:34.430Z,3.90
2018-12-08T12:05:02.825Z,4.63
2018-12-08T12:07:31.173Z,4.47
2018-12-08T12:09:59.605Z,4.13
2018-12-08T12:12:27.933Z,5.07
2018-12-08T12:14:56.305Z,4.87
2018-12-08T12:17:24.649Z,4.37
2018-12-08T12:19:53.081Z,4.63
2018-12-08T12:22:21.497Z,4.43
2018-12-08T12:24:49.822Z,4.00
2018-12-08T12:27:18.145Z,4.07
2018-12-08T12:29:46.441Z,4.60
2018-12-08T12:32:20.843Z,4.20
2018-12-08T12:35:07.749Z,4.90
2018-12-08T12:37:36.089Z,4.43
2018-12-08T12:40:04.825Z,4.00
2018-12-08T12:42:33.177Z,3.97
2018-12-08T12:45:01.738Z,4.03
2018-12-08T12:47:30.065Z,4.37
2018-12-08T12:49:58.421Z,3.57
2018-12-08T12:52:26.865Z,3.87
2018-12-08T12:55:49.212Z,3.83
2018-12-08T13:01:34.076Z,4.43
2018-12-08T13:04:02.609Z,3.93
2018-12-08T13:06:31.049Z,4.10
2018-12-08T13:08:59.344Z,3.77
2018-12-08T13:11:27.389Z,3.60
2018-12-08T13:13:55.475Z,3.27
2018-12-08T13:16:43.374Z,3.83
2018-12-08T13:19:17.621Z,4.57
2018-12-08T13:21:45.709Z,3.07
2018-12-08T13:24:13.781Z,3.37
2018-12-08T13:26:41.826Z,4.03
2018-12-08T13:29:09.903Z,3.03
2018-12-08T13:31:37.997Z,4.13
2018-12-08T13:34:11.642Z,3.60
2018-12-08T13:36:39.669Z,3.43
2018-12-08T13:39:07.746Z,3.30
2018-12-08T13:41:35.878Z,3.57
2018-12-08T13:44:04.596Z,4.27
2018-12-08T13:46:32.898Z,3.60
2018-12-08T13:49:00.930Z,2.90
2018-12-08T13:51:28.982Z,3.40
2018-12-08T13:53:57.286Z,3.40
2018-12-08T13:56:25.341Z,2.83
2018-12-08T13:58:53.400Z,3.33
2018-12-08T14:01:21.482Z,3.43
2018-12-08T14:03:49.507Z,3.93
2018-12-08T14:06:17.578Z,3.73
2018-12-08T14:08:46.022Z,4.10
2018-12-08T14:11:14.062Z,3.80
2018-12-08T14:13:42.112Z,3.83
2018-12-08T14:16:10.134Z,3.47
2018-12-08T14:18:38.531Z,3.50
2018-12-08T14:21:06.894Z,3.63
2018-12-08T14:23:35.070Z,3.53
2018-12-08T14:26:03.303Z,3.87
2018-12-08T14:28:31.559Z,3.87
2018-12-08T14:30:59.905Z,3.97
2018-12-08T14:33:28.123Z,3.13
2018-12-08T14:35:56.355Z,3.40
2018-12-08T14:38:25.243Z,3.70
2018-12-08T14:40:53.357Z,3.00
2018-12-08T14:43:21.503Z,3.80
2018-12-08T14:45:49.871Z,3.80
2018-12-08T14:48:18.003Z,3.03
2018-12-08T14:50:46.267Z,3.60
2018-12-08T14:53:14.343Z,3.60
2018-12-08T14:55:42.495Z,3.50
2018-12-08T14:58:10.579Z,3.40
2018-12-08T15:00:38.688Z,3.80
2018-12-08T15:03:06.768Z,3.13
2018-12-08T15:05:34.860Z,3.83
2018-12-08T15:08:02.951Z,3.30
2018-12-08T15:10:31.080Z,3.07
2018-12-08T15:13:00.144Z,3.30
2018-12-08T15:15:28.396Z,3.27
2018-12-08T15:17:56.491Z,4.17
2018-12-08T15:20:24.664Z,3.17
2018-12-08T15:22:52.732Z,3.20
2018-12-08T15:25:20.888Z,3.10
2018-12-08T15:27:49.084Z,2.90
2018-12-08T15:30:17.312Z,3.20
2018-12-08T15:32:45.372Z,2.43
2018-12-08T15:35:13.692Z,3.90
2018-12-08T15:37:57.428Z,3.17
2018-12-08T15:40:46.188Z,2.43
2018-12-08T15:43:45.189Z,2.90
2018-12-08T15:46:23.192Z,2.67
2018-12-08T16:21:07.109Z,3.23
2018-12-08T16:23:35.253Z,3.10
2018-12-08T16:26:03.385Z,3.30
2018-12-08T16:28:31.501Z,2.97
2018-12-08T16:30:59.627Z,3.37
2018-12-08T16:33:27.793Z,3.37
2018-12-08T16:35:56.129Z,3.40
2018-12-08T16:38:24.410Z,3.40
2018-12-08T16:40:52.627Z,3.73
2018-12-08T16:43:20.675Z,3.47
2018-12-08T16:45:48.930Z,3.77
2018-12-08T16:48:17.174Z,3.63
2018-12-08T16:50:45.462Z,3.70
2018-12-08T16:53:13.762Z,3.90
2018-12-08T16:55:54.502Z,4.97
2018-12-08T16:58:22.838Z,4.87
2018-12-08T17:00:51.113Z,4.57
2018-12-08T17:03:19.153Z,3.90
2018-12-08T17:05:47.157Z,4.37
2018-12-08T17:08:15.163Z,4.23
2018-12-08T17:10:43.250Z,4.57
2018-12-08T17:13:11.256Z,4.83
2018-12-08T17:15:39.277Z,4.37
2018-12-08T17:18:08.517Z,4.10
2018-12-08T17:20:36.670Z,5.20
2018-12-08T17:23:04.646Z,4.90
2018-12-08T17:25:32.806Z,5.67
2018-12-08T17:28:00.802Z,4.60
2018-12-08T17:30:28.826Z,4.77
2018-12-08T17:32:56.806Z,4.83
2018-12-08T17:35:24.931Z,4.97
2018-12-08T17:37:52.934Z,4.87
2018-12-08T17:40:20.943Z,4.67
2018-12-08T17:42:49.027Z,4.43
2018-12-08T17:45:17.030Z,5.23
2018-12-08T17:47:45.158Z,5.33
2018-12-08T17:50:13.259Z,5.20
2018-12-08T17:52:41.339Z,4.63
2018-12-08T17:55:09.434Z,4.40
2018-12-08T17:57:37.431Z,4.80
2018-12-08T18:00:05.731Z,5.27
2018-12-08T18:02:33.737Z,4.80
2018-12-08T18:05:01.736Z,4.57
2018-12-08T18:07:29.739Z,4.83
2018-12-08T18:09:57.731Z,5.07
2018-12-08T18:12:25.979Z,4.53
2018-12-08T18:14:53.986Z,4.00
2018-12-08T18:17:22.087Z,5.67
2018-12-08T18:19:50.087Z,4.40
2018-12-08T18:22:18.088Z,5.03
2018-12-08T18:24:46.207Z,4.53
2018-12-08T18:27:14.311Z,4.80
2018-12-08T18:29:42.311Z,5.10
2018-12-08T18:32:10.292Z,5.23
2018-12-08T18:34:38.284Z,5.10
2018-12-08T18:37:06.280Z,4.80
2018-12-08T18:39:34.271Z,4.67
2018-12-08T18:42:02.267Z,5.20
2018-12-08T18:44:30.267Z,5.33
2018-12-08T18:46:58.263Z,5.60
2018-12-08T18:49:26.292Z,5.83
2018-12-08T18:51:54.299Z,5.77
2018-12-08T18:54:22.395Z,6.10
2018-12-08T18:56:50.407Z,5.63
2018-12-08T18:59:18.420Z,5.00
2018-12-08T19:01:46.411Z,4.47
2018-12-08T19:04:14.436Z,4.90
2018-12-08T19:06:42.428Z,4.67
2018-12-08T19:09:10.460Z,4.57
2018-12-08T19:11:38.464Z,4.00
2018-12-08T19:14:06.491Z,4.23
2018-12-08T19:16:34.487Z,4.33
2018-12-08T19:19:02.496Z,4.53
2018-12-08T19:21:30.507Z,4.10
2018-12-08T19:23:58.492Z,4.17
2018-12-08T19:26:26.547Z,3.73
2018-12-08T19:28:54.540Z,3.43
2018-12-08T19:31:22.542Z,3.23
2018-12-08T19:33:50.540Z,3.20
2018-12-08T19:36:18.528Z,3.00
2018-12-08T19:38:46.528Z,3.00
2018-12-08T19:41:14.524Z,3.00
2018-12-08T19:43:42.500Z,3.10
2018-12-08T19:46:10.487Z,3.23
2018-12-08T19:48:38.588Z,3.00
2018-12-08T19:51:06.660Z,2.60
2018-12-08T19:53:34.681Z,2.80
2018-12-08T19:56:03.476Z,2.33
2018-12-08T19:58:31.500Z,2.53
2018-12-08T20:00:59.492Z,2.73
2018-12-08T20:03:27.488Z,2.60
2018-12-08T20:05:55.508Z,2.80
2018-12-08T20:08:23.521Z,2.77
2018-12-08T20:10:51.489Z,2.30
2018-12-08T20:13:19.517Z,2.27
2018-12-08T20:15:47.688Z,2.43
2018-12-08T20:18:15.692Z,3.37
2018-12-08T20:20:43.688Z,2.47
2018-12-08T20:23:11.689Z,2.60
2018-12-08T20:25:39.678Z,2.90
2018-12-08T20:28:07.677Z,2.80
2018-12-08T20:30:35.698Z,3.70
2018-12-08T20:33:03.705Z,2.80
2018-12-08T20:35:31.678Z,2.17
2018-12-08T20:37:59.674Z,2.50
2018-12-08T20:40:27.646Z,2.10
2018-12-08T20:42:55.678Z,2.00
2018-12-08T20:45:23.682Z,1.97
2018-12-08T20:47:51.666Z,2.00
2018-12-08T20:50:19.679Z,1.53
2018-12-08T20:52:47.667Z,1.50
2018-12-08T20:55:15.642Z,1.77
2018-12-08T20:57:43.631Z,1.53
2018-12-08T21:00:11.626Z,1.70
2018-12-08T21:02:39.596Z,1.70
2018-12-08T21:05:07.782Z,1.50
2018-12-08T21:07:35.861Z,1.40
2018-12-08T21:10:04.542Z,1.17
2018-12-08T21:12:32.534Z,1.20
2018-12-08T21:15:00.614Z,1.60
2018-12-08T21:17:28.599Z,1.53
2018-12-08T21:19:56.686Z,1.67
2018-12-08T21:22:24.661Z,1.60
2018-12-08T21:24:52.693Z,1.63
2018-12-08T21:27:20.703Z,1.53
2018-12-08T21:29:48.727Z,1.70
2018-12-08T21:32:16.702Z,1.47
2018-12-08T21:34:44.706Z,1.37
2018-12-08T21:37:12.706Z,1.03
2018-12-08T21:39:40.707Z,1.80
2018-12-08T21:42:08.697Z,1.20
2018-12-08T21:44:36.698Z,1.27
2018-12-08T21:47:04.783Z,1.30
2018-12-08T21:49:32.783Z,1.50
2018-12-08T21:52:00.782Z,1.20
2018-12-08T21:54:28.770Z,1.60
2018-12-08T21:56:56.829Z,1.83
2018-12-08T21:59:24.827Z,1.40
2018-12-08T22:01:52.882Z,1.57
2018-12-08T22:04:20.863Z,1.70
2018-12-08T22:06:48.982Z,1.80
2018-12-08T22:09:16.983Z,1.73
2018-12-08T22:11:45.019Z,2.10
2018-12-08T22:14:13.014Z,1.47
2018-12-08T22:16:41.007Z,2.60
2018-12-08T22:19:09.038Z,1.90
2018-12-08T22:21:37.047Z,2.30
2018-12-08T22:24:05.066Z,2.60
2018-12-08T22:26:33.042Z,2.33
2018-12-08T22:29:01.066Z,2.70
2018-12-08T22:31:29.067Z,2.50
2018-12-08T22:33:57.083Z,2.60
2018-12-08T22:36:25.103Z,2.57
2018-12-08T22:38:53.123Z,1.77
2018-12-08T22:41:21.123Z,2.10
2018-12-08T22:43:49.130Z,1.90
2018-12-08T22:46:17.171Z,2.00
2018-12-08T22:48:45.187Z,2.27
2018-12-08T22:51:13.212Z,2.40
2018-12-08T22:53:41.215Z,1.87
2018-12-08T22:56:09.218Z,2.27
2018-12-08T22:58:37.211Z,2.60
2018-12-08T23:01:05.223Z,2.67
2018-12-08T23:03:33.223Z,2.80
2018-12-08T23:06:01.215Z,3.53
2018-12-08T23:08:29.203Z,1.43
2018-12-08T23:10:57.234Z,1.50
2018-12-08T23:13:25.323Z,1.47
2018-12-08T23:15:53.463Z,1.00
2018-12-08T23:18:21.643Z,1.30
2018-12-08T23:20:49.963Z,1.37
2018-12-08T23:23:17.976Z,1.40
2018-12-08T23:25:46.139Z,1.40
2018-12-08T23:28:14.327Z,1.80
2018-12-08T23:30:42.839Z,1.93
2018-12-08T23:33:17.463Z,2.13
2018-12-08T23:35:45.501Z,2.00
2018-12-08T23:38:13.535Z,1.80
2018-12-08T23:40:41.519Z,1.77
2018-12-08T23:43:09.535Z,1.70
2018-12-08T23:45:37.595Z,1.93
2018-12-08T23:48:05.607Z,2.07
2018-12-08T23:50:34.953Z,1.67
2018-12-08T23:53:03.119Z,1.80
2018-12-08T23:55:31.123Z,1.47
2018-12-08T23:57:59.107Z,2.30
